sensor_id;sensor_type;location;lat;lon;timestamp;P1;durP1;ratioP1;P2;durP2;ratioP2
46266;SDS011;31998;48.798;15.066;2024-02-15T00:02:01;3.50;;;3.30;;
46266;SDS011;31998;48.798;15.066;2024-02-15T00:04:26;3.90;;;3.43;;
46266;SDS011;31998;48.798;15.066;2024-02-15T00:06:52;6.50;;;4.20;;
46266;SDS011;31998;48.798;15.066;2024-02-15T00:09:18;3.53;;;3.20;;
46266;SDS011;31998;48.798;15.066;2024-02-15T00:11:43;3.57;;;3.17;;
46266;SDS011;31998;48.798;15.066;2024-02-15T00:14:08;3.83;;;3.50;;
46266;SDS011;31998;48.798;15.066;2024-02-15T00:16:34;3.10;;;2.90;;
46266;SDS011;31998;48.798;15.066;2024-02-15T00:19:00;3.63;;;3.33;;
46266;SDS011;31998;48.798;15.066;2024-02-15T00:21:25;3.73;;;3.07;;
46266;SDS011;31998;48.798;15.066;2024-02-15T00:23:50;3.07;;;2.80;;
46266;SDS011;31998;48.798;15.066;2024-02-15T00:26:16;2.40;;;2.30;;
46266;SDS011;31998;48.798;15.066;2024-02-15T00:28:41;3.03;;;2.80;;
46266;SDS011;31998;48.798;15.066;2024-02-15T00:31:06;6.00;;;4.20;;
46266;SDS011;31998;48.798;15.066;2024-02-15T00:33:33;3.63;;;3.30;;
46266;SDS011;31998;48.798;15.066;2024-02-15T00:35:58;3.90;;;3.60;;
46266;SDS011;31998;48.798;15.066;2024-02-15T00:38:23;4.73;;;4.10;;
46266;SDS011;31998;48.798;15.066;2024-02-15T00:40:48;5.63;;;4.53;;
46266;SDS011;31998;48.798;15.066;2024-02-15T00:43:14;3.70;;;3.33;;
46266;SDS011;31998;48.798;15.066;2024-02-15T00:45:39;3.33;;;3.07;;
46266;SDS011;31998;48.798;15.066;2024-02-15T00:48:05;4.70;;;4.30;;
46266;SDS011;31998;48.798;15.066;2024-02-15T00:50:31;4.30;;;4.00;;
46266;SDS011;31998;48.798;15.066;2024-02-15T00:52:56;4.40;;;3.30;;
46266;SDS011;31998;48.798;15.066;2024-02-15T00:55:21;4.10;;;3.70;;
46266;SDS011;31998;48.798;15.066;2024-02-15T00:57:46;4.60;;;4.20;;
46266;SDS011;31998;48.798;15.066;2024-02-15T01:00:12;6.20;;;4.27;;
46266;SDS011;31998;48.798;15.066;2024-02-15T01:02:38;4.47;;;4.07;;
46266;SDS011;31998;48.798;15.066;2024-02-15T01:05:03;3.70;;;3.50;;
46266;SDS011;31998;48.798;15.066;2024-02-15T01:07:28;4.47;;;4.07;;
46266;SDS011;31998;48.798;15.066;2024-02-15T01:09:54;3.93;;;3.60;;
46266;SDS011;31998;48.798;15.066;2024-02-15T01:12:19;3.77;;;3.47;;
46266;SDS011;31998;48.798;15.066;2024-02-15T01:14:45;7.57;;;4.03;;
46266;SDS011;31998;48.798;15.066;2024-02-15T01:17:11;3.80;;;3.63;;
46266;SDS011;31998;48.798;15.066;2024-02-15T01:19:36;6.10;;;4.37;;
46266;SDS011;31998;48.798;15.066;2024-02-15T01:22:01;9.40;;;4.50;;
46266;SDS011;31998;48.798;15.066;2024-02-15T01:24:27;6.40;;;4.07;;
46266;SDS011;31998;48.798;15.066;2024-02-15T01:26:53;4.90;;;4.40;;
46266;SDS011;31998;48.798;15.066;2024-02-15T01:29:18;5.17;;;4.60;;
46266;SDS011;31998;48.798;15.066;2024-02-15T01:31:43;4.60;;;3.93;;
46266;SDS011;31998;48.798;15.066;2024-02-15T01:34:08;5.17;;;4.23;;
46266;SDS011;31998;48.798;15.066;2024-02-15T01:36:34;5.20;;;4.77;;
46266;SDS011;31998;48.798;15.066;2024-02-15T01:38:59;5.03;;;4.60;;
46266;SDS011;31998;48.798;15.066;2024-02-15T01:41:24;6.93;;;4.30;;
46266;SDS011;31998;48.798;15.066;2024-02-15T01:43:49;4.53;;;4.27;;
46266;SDS011;31998;48.798;15.066;2024-02-15T01:46:15;4.00;;;3.70;;
46266;SDS011;31998;48.798;15.066;2024-02-15T01:48:40;4.30;;;4.00;;
46266;SDS011;31998;48.798;15.066;2024-02-15T01:51:07;4.20;;;3.90;;
46266;SDS011;31998;48.798;15.066;2024-02-15T01:53:33;3.97;;;3.67;;
46266;SDS011;31998;48.798;15.066;2024-02-15T01:55:59;3.00;;;2.80;;
46266;SDS011;31998;48.798;15.066;2024-02-15T01:58:25;3.67;;;3.47;;
46266;SDS011;31998;48.798;15.066;2024-02-15T02:00:50;5.87;;;3.70;;
46266;SDS011;31998;48.798;15.066;2024-02-15T02:03:16;4.67;;;3.67;;
46266;SDS011;31998;48.798;15.066;2024-02-15T02:05:42;3.37;;;3.17;;
46266;SDS011;31998;48.798;15.066;2024-02-15T02:08:07;3.47;;;3.27;;
46266;SDS011;31998;48.798;15.066;2024-02-15T02:10:35;3.60;;;3.30;;
46266;SDS011;31998;48.798;15.066;2024-02-15T02:13:00;3.80;;;3.47;;
46266;SDS011;31998;48.798;15.066;2024-02-15T02:15:27;4.13;;;3.83;;
46266;SDS011;31998;48.798;15.066;2024-02-15T02:17:53;3.20;;;3.10;;
46266;SDS011;31998;48.798;15.066;2024-02-15T02:20:19;5.23;;;3.87;;
46266;SDS011;31998;48.798;15.066;2024-02-15T02:22:45;3.17;;;3.07;;
46266;SDS011;31998;48.798;15.066;2024-02-15T02:25:11;4.47;;;3.23;;
46266;SDS011;31998;48.798;15.066;2024-02-15T02:27:38;3.07;;;2.87;;
46266;SDS011;31998;48.798;15.066;2024-02-15T02:30:03;3.77;;;3.57;;
46266;SDS011;31998;48.798;15.066;2024-02-15T02:32:32;3.70;;;3.43;;
46266;SDS011;31998;48.798;15.066;2024-02-15T02:34:58;3.13;;;2.93;;
46266;SDS011;31998;48.798;15.066;2024-02-15T02:37:23;4.30;;;3.07;;
46266;SDS011;31998;48.798;15.066;2024-02-15T02:39:49;3.00;;;2.90;;
46266;SDS011;31998;48.798;15.066;2024-02-15T02:42:14;5.77;;;2.93;;
46266;SDS011;31998;48.798;15.066;2024-02-15T02:44:39;5.27;;;2.80;;
46266;SDS011;31998;48.798;15.066;2024-02-15T02:47:05;3.33;;;2.83;;
46266;SDS011;31998;48.798;15.066;2024-02-15T02:49:30;3.30;;;2.87;;
46266;SDS011;31998;48.798;15.066;2024-02-15T02:51:55;3.93;;;2.77;;
46266;SDS011;31998;48.798;15.066;2024-02-15T02:54:21;3.10;;;2.90;;
46266;SDS011;31998;48.798;15.066;2024-02-15T02:56:46;2.80;;;2.70;;
46266;SDS011;31998;48.798;15.066;2024-02-15T02:59:11;3.23;;;2.57;;
46266;SDS011;31998;48.798;15.066;2024-02-15T03:01:36;2.57;;;2.47;;
46266;SDS011;31998;48.798;15.066;2024-02-15T03:04:01;3.30;;;3.00;;
46266;SDS011;31998;48.798;15.066;2024-02-15T03:06:27;10.70;;;2.50;;
46266;SDS011;31998;48.798;15.066;2024-02-15T03:08:52;2.97;;;2.83;;
46266;SDS011;31998;48.798;15.066;2024-02-15T03:11:20;2.30;;;2.20;;
46266;SDS011;31998;48.798;15.066;2024-02-15T03:13:46;2.20;;;2.10;;
46266;SDS011;31998;48.798;15.066;2024-02-15T03:16:13;2.20;;;2.10;;
46266;SDS011;31998;48.798;15.066;2024-02-15T03:18:38;2.23;;;2.13;;
46266;SDS011;31998;48.798;15.066;2024-02-15T03:21:03;2.80;;;2.47;;
46266;SDS011;31998;48.798;15.066;2024-02-15T03:23:29;2.00;;;1.90;;
46266;SDS011;31998;48.798;15.066;2024-02-15T03:25:54;2.03;;;1.93;;
46266;SDS011;31998;48.798;15.066;2024-02-15T03:28:19;2.23;;;2.13;;
46266;SDS011;31998;48.798;15.066;2024-02-15T03:30:46;2.30;;;2.20;;
46266;SDS011;31998;48.798;15.066;2024-02-15T03:33:11;3.57;;;2.40;;
46266;SDS011;31998;48.798;15.066;2024-02-15T03:35:38;2.83;;;2.63;;
46266;SDS011;31998;48.798;15.066;2024-02-15T03:38:04;2.23;;;1.97;;
46266;SDS011;31998;48.798;15.066;2024-02-15T03:40:29;1.43;;;1.43;;
46266;SDS011;31998;48.798;15.066;2024-02-15T03:42:55;3.47;;;1.77;;
46266;SDS011;31998;48.798;15.066;2024-02-15T03:45:21;1.87;;;1.77;;
46266;SDS011;31998;48.798;15.066;2024-02-15T03:47:50;2.13;;;2.00;;
46266;SDS011;31998;48.798;15.066;2024-02-15T03:50:15;1.93;;;1.83;;
46266;SDS011;31998;48.798;15.066;2024-02-15T03:52:40;1.37;;;1.37;;
46266;SDS011;31998;48.798;15.066;2024-02-15T03:55:06;1.40;;;1.30;;
46266;SDS011;31998;48.798;15.066;2024-02-15T03:57:32;1.23;;;1.23;;
46266;SDS011;31998;48.798;15.066;2024-02-15T03:59:58;1.60;;;1.60;;
46266;SDS011;31998;48.798;15.066;2024-02-15T04:02:24;4.03;;;1.27;;
46266;SDS011;31998;48.798;15.066;2024-02-15T04:04:53;1.10;;;1.10;;
46266;SDS011;31998;48.798;15.066;2024-02-15T04:07:20;1.30;;;1.20;;
46266;SDS011;31998;48.798;15.066;2024-02-15T04:09:45;1.53;;;1.43;;
46266;SDS011;31998;48.798;15.066;2024-02-15T04:12:11;1.57;;;1.47;;
46266;SDS011;31998;48.798;15.066;2024-02-15T04:14:36;1.70;;;1.60;;
46266;SDS011;31998;48.798;15.066;2024-02-15T04:17:03;1.47;;;1.37;;
46266;SDS011;31998;48.798;15.066;2024-02-15T04:19:29;1.23;;;1.23;;
46266;SDS011;31998;48.798;15.066;2024-02-15T04:21:55;1.00;;;1.00;;
46266;SDS011;31998;48.798;15.066;2024-02-15T04:24:21;2.13;;;1.80;;
46266;SDS011;31998;48.798;15.066;2024-02-15T04:26:46;1.10;;;1.10;;
46266;SDS011;31998;48.798;15.066;2024-02-15T04:29:13;1.10;;;1.10;;
46266;SDS011;31998;48.798;15.066;2024-02-15T04:31:39;1.07;;;1.00;;
46266;SDS011;31998;48.798;15.066;2024-02-15T04:34:05;1.00;;;1.00;;
46266;SDS011;31998;48.798;15.066;2024-02-15T04:36:30;2.13;;;0.87;;
46266;SDS011;31998;48.798;15.066;2024-02-15T04:38:59;0.90;;;0.90;;
46266;SDS011;31998;48.798;15.066;2024-02-15T04:41:26;1.40;;;1.30;;
46266;SDS011;31998;48.798;15.066;2024-02-15T04:43:51;1.50;;;1.50;;
46266;SDS011;31998;48.798;15.066;2024-02-15T04:46:19;1.20;;;1.20;;
46266;SDS011;31998;48.798;15.066;2024-02-15T04:48:48;1.43;;;1.37;;
46266;SDS011;31998;48.798;15.066;2024-02-15T04:51:16;3.30;;;1.47;;
46266;SDS011;31998;48.798;15.066;2024-02-15T04:53:42;5.10;;;1.37;;
46266;SDS011;31998;48.798;15.066;2024-02-15T04:56:07;1.20;;;1.10;;
46266;SDS011;31998;48.798;15.066;2024-02-15T04:58:38;1.40;;;1.40;;
46266;SDS011;31998;48.798;15.066;2024-02-15T05:01:10;1.33;;;1.23;;
46266;SDS011;31998;48.798;15.066;2024-02-15T05:03:35;1.60;;;1.50;;
46266;SDS011;31998;48.798;15.066;2024-02-15T05:06:01;1.40;;;1.40;;
46266;SDS011;31998;48.798;15.066;2024-02-15T05:08:30;1.33;;;1.27;;
46266;SDS011;31998;48.798;15.066;2024-02-15T05:10:56;1.00;;;1.00;;
46266;SDS011;31998;48.798;15.066;2024-02-15T05:13:24;1.90;;;1.23;;
46266;SDS011;31998;48.798;15.066;2024-02-15T05:15:49;1.13;;;1.13;;
46266;SDS011;31998;48.798;15.066;2024-02-15T05:18:15;2.23;;;1.10;;
46266;SDS011;31998;48.798;15.066;2024-02-15T05:20:40;1.63;;;1.43;;
46266;SDS011;31998;48.798;15.066;2024-02-15T05:23:05;1.13;;;1.13;;
46266;SDS011;31998;48.798;15.066;2024-02-15T05:25:31;1.50;;;1.50;;
46266;SDS011;31998;48.798;15.066;2024-02-15T05:27:58;0.97;;;0.97;;
46266;SDS011;31998;48.798;15.066;2024-02-15T05:30:23;6.77;;;1.03;;
46266;SDS011;31998;48.798;15.066;2024-02-15T05:32:48;1.00;;;1.00;;
46266;SDS011;31998;48.798;15.066;2024-02-15T05:35:14;1.40;;;1.03;;
46266;SDS011;31998;48.798;15.066;2024-02-15T05:37:40;1.20;;;1.20;;
46266;SDS011;31998;48.798;15.066;2024-02-15T05:40:05;1.53;;;1.43;;
46266;SDS011;31998;48.798;15.066;2024-02-15T05:42:31;0.80;;;0.80;;
46266;SDS011;31998;48.798;15.066;2024-02-15T05:44:59;1.10;;;1.10;;
46266;SDS011;31998;48.798;15.066;2024-02-15T05:47:39;1.90;;;1.30;;
46266;SDS011;31998;48.798;15.066;2024-02-15T05:50:05;1.20;;;1.20;;
46266;SDS011;31998;48.798;15.066;2024-02-15T05:52:32;0.97;;;0.97;;
46266;SDS011;31998;48.798;15.066;2024-02-15T05:54:57;0.90;;;0.90;;
46266;SDS011;31998;48.798;15.066;2024-02-15T05:57:22;3.03;;;1.00;;
46266;SDS011;31998;48.798;15.066;2024-02-15T05:59:47;0.83;;;0.83;;
46266;SDS011;31998;48.798;15.066;2024-02-15T06:02:14;0.90;;;0.90;;
46266;SDS011;31998;48.798;15.066;2024-02-15T06:04:40;1.50;;;1.40;;
46266;SDS011;31998;48.798;15.066;2024-02-15T06:07:06;1.30;;;1.30;;
46266;SDS011;31998;48.798;15.066;2024-02-15T06:09:31;0.90;;;0.90;;
46266;SDS011;31998;48.798;15.066;2024-02-15T06:11:58;2.30;;;1.80;;
46266;SDS011;31998;48.798;15.066;2024-02-15T06:14:25;1.50;;;1.50;;
46266;SDS011;31998;48.798;15.066;2024-02-15T06:16:50;1.20;;;1.20;;
46266;SDS011;31998;48.798;15.066;2024-02-15T06:19:17;2.37;;;1.13;;
46266;SDS011;31998;48.798;15.066;2024-02-15T06:21:42;1.47;;;1.37;;
46266;SDS011;31998;48.798;15.066;2024-02-15T06:24:07;1.93;;;1.00;;
46266;SDS011;31998;48.798;15.066;2024-02-15T06:26:33;0.87;;;0.87;;
46266;SDS011;31998;48.798;15.066;2024-02-15T06:28:59;1.40;;;1.40;;
46266;SDS011;31998;48.798;15.066;2024-02-15T06:31:43;2.23;;;2.13;;
46266;SDS011;31998;48.798;15.066;2024-02-15T06:34:27;1.60;;;1.50;;
46266;SDS011;31998;48.798;15.066;2024-02-15T06:37:11;1.47;;;1.40;;
46266;SDS011;31998;48.798;15.066;2024-02-15T06:40:14;2.40;;;2.27;;
46266;SDS011;31998;48.798;15.066;2024-02-15T06:42:40;2.30;;;1.93;;
46266;SDS011;31998;48.798;15.066;2024-02-15T06:45:06;3.00;;;2.27;;
46266;SDS011;31998;48.798;15.066;2024-02-15T06:47:32;1.97;;;1.87;;
46266;SDS011;31998;48.798;15.066;2024-02-15T06:49:58;1.93;;;1.83;;
46266;SDS011;31998;48.798;15.066;2024-02-15T06:52:23;1.60;;;1.50;;
46266;SDS011;31998;48.798;15.066;2024-02-15T06:54:48;1.40;;;1.40;;
46266;SDS011;31998;48.798;15.066;2024-02-15T06:57:15;2.33;;;2.23;;
46266;SDS011;31998;48.798;15.066;2024-02-15T06:59:40;2.50;;;2.40;;
46266;SDS011;31998;48.798;15.066;2024-02-15T07:02:07;2.90;;;2.73;;
46266;SDS011;31998;48.798;15.066;2024-02-15T07:04:33;4.20;;;3.67;;
46266;SDS011;31998;48.798;15.066;2024-02-15T07:06:58;2.63;;;2.53;;
46266;SDS011;31998;48.798;15.066;2024-02-15T07:09:24;3.33;;;2.47;;
46266;SDS011;31998;48.798;15.066;2024-02-15T07:11:50;1.50;;;1.40;;
46266;SDS011;31998;48.798;15.066;2024-02-15T07:14:16;1.70;;;1.70;;
46266;SDS011;31998;48.798;15.066;2024-02-15T07:16:47;1.93;;;1.83;;
46266;SDS011;31998;48.798;15.066;2024-02-15T07:19:14;1.60;;;1.50;;
46266;SDS011;31998;48.798;15.066;2024-02-15T07:21:40;1.60;;;1.50;;
46266;SDS011;31998;48.798;15.066;2024-02-15T07:24:05;1.83;;;1.73;;
46266;SDS011;31998;48.798;15.066;2024-02-15T07:26:30;1.93;;;1.83;;
46266;SDS011;31998;48.798;15.066;2024-02-15T07:28:56;2.60;;;2.00;;
46266;SDS011;31998;48.798;15.066;2024-02-15T07:31:22;1.80;;;1.70;;
46266;SDS011;31998;48.798;15.066;2024-02-15T07:33:48;1.77;;;1.70;;
46266;SDS011;31998;48.798;15.066;2024-02-15T07:36:14;1.67;;;1.57;;
46266;SDS011;31998;48.798;15.066;2024-02-15T07:38:39;2.20;;;2.10;;
46266;SDS011;31998;48.798;15.066;2024-02-15T07:41:05;2.90;;;2.70;;
46266;SDS011;31998;48.798;15.066;2024-02-15T07:43:30;2.63;;;2.47;;
46266;SDS011;31998;48.798;15.066;2024-02-15T07:45:56;3.17;;;3.07;;
46266;SDS011;31998;48.798;15.066;2024-02-15T07:48:21;6.87;;;5.43;;
46266;SDS011;31998;48.798;15.066;2024-02-15T07:50:47;81.30;;;40.93;;
46266;SDS011;31998;48.798;15.066;2024-02-15T07:53:12;108.37;;;49.80;;
46266;SDS011;31998;48.798;15.066;2024-02-15T07:55:38;28.43;;;18.60;;
46266;SDS011;31998;48.798;15.066;2024-02-15T07:58:04;21.27;;;13.53;;
46266;SDS011;31998;48.798;15.066;2024-02-15T08:00:29;22.30;;;16.90;;
46266;SDS011;31998;48.798;15.066;2024-02-15T08:02:55;24.50;;;15.53;;
46266;SDS011;31998;48.798;15.066;2024-02-15T08:05:22;25.07;;;16.03;;
46266;SDS011;31998;48.798;15.066;2024-02-15T08:07:47;24.93;;;17.67;;
46266;SDS011;31998;48.798;15.066;2024-02-15T08:10:12;22.80;;;17.97;;
46266;SDS011;31998;48.798;15.066;2024-02-15T08:12:41;17.60;;;15.73;;
46266;SDS011;31998;48.798;15.066;2024-02-15T08:15:07;29.57;;;21.43;;
46266;SDS011;31998;48.798;15.066;2024-02-15T08:17:36;30.83;;;21.10;;
46266;SDS011;31998;48.798;15.066;2024-02-15T08:20:02;28.40;;;18.63;;
46266;SDS011;31998;48.798;15.066;2024-02-15T08:22:32;19.93;;;15.33;;
46266;SDS011;31998;48.798;15.066;2024-02-15T08:24:57;23.00;;;17.73;;
46266;SDS011;31998;48.798;15.066;2024-02-15T08:27:22;28.00;;;18.87;;
46266;SDS011;31998;48.798;15.066;2024-02-15T08:29:48;26.53;;;17.47;;
46266;SDS011;31998;48.798;15.066;2024-02-15T08:32:13;20.60;;;14.70;;
46266;SDS011;31998;48.798;15.066;2024-02-15T08:34:39;17.60;;;12.50;;
46266;SDS011;31998;48.798;15.066;2024-02-15T08:37:04;15.50;;;10.37;;
46266;SDS011;31998;48.798;15.066;2024-02-15T08:39:29;10.03;;;9.00;;
46266;SDS011;31998;48.798;15.066;2024-02-15T08:41:55;9.77;;;8.87;;
46266;SDS011;31998;48.798;15.066;2024-02-15T08:44:20;8.63;;;7.90;;
46266;SDS011;31998;48.798;15.066;2024-02-15T08:46:46;7.23;;;6.70;;
46266;SDS011;31998;48.798;15.066;2024-02-15T08:49:13;7.57;;;6.87;;
46266;SDS011;31998;48.798;15.066;2024-02-15T08:51:38;8.60;;;6.63;;
46266;SDS011;31998;48.798;15.066;2024-02-15T08:54:04;7.27;;;6.60;;
46266;SDS011;31998;48.798;15.066;2024-02-15T08:56:29;6.57;;;6.00;;
46266;SDS011;31998;48.798;15.066;2024-02-15T08:58:54;7.10;;;6.60;;
46266;SDS011;31998;48.798;15.066;2024-02-15T09:01:19;10.07;;;6.70;;
46266;SDS011;31998;48.798;15.066;2024-02-15T09:03:44;7.43;;;6.50;;
46266;SDS011;31998;48.798;15.066;2024-02-15T09:06:10;8.23;;;7.43;;
46266;SDS011;31998;48.798;15.066;2024-02-15T09:08:35;6.37;;;5.77;;
46266;SDS011;31998;48.798;15.066;2024-02-15T09:11:00;3.53;;;3.40;;
46266;SDS011;31998;48.798;15.066;2024-02-15T09:13:26;5.10;;;4.63;;
46266;SDS011;31998;48.798;15.066;2024-02-15T09:15:51;8.20;;;5.47;;
46266;SDS011;31998;48.798;15.066;2024-02-15T09:18:16;3.60;;;3.30;;
46266;SDS011;31998;48.798;15.066;2024-02-15T09:20:47;2.97;;;2.77;;
46266;SDS011;31998;48.798;15.066;2024-02-15T09:23:14;2.53;;;2.43;;
46266;SDS011;31998;48.798;15.066;2024-02-15T09:25:39;2.70;;;2.60;;
46266;SDS011;31998;48.798;15.066;2024-02-15T09:28:05;3.63;;;3.47;;
46266;SDS011;31998;48.798;15.066;2024-02-15T09:30:30;2.10;;;2.00;;
46266;SDS011;31998;48.798;15.066;2024-02-15T09:32:57;1.23;;;1.23;;
46266;SDS011;31998;48.798;15.066;2024-02-15T09:35:22;2.10;;;2.03;;
46266;SDS011;31998;48.798;15.066;2024-02-15T09:37:47;2.00;;;1.90;;
46266;SDS011;31998;48.798;15.066;2024-02-15T09:40:14;1.93;;;1.83;;
46266;SDS011;31998;48.798;15.066;2024-02-15T09:42:41;1.93;;;1.83;;
46266;SDS011;31998;48.798;15.066;2024-02-15T09:45:07;5.33;;;0.93;;
46266;SDS011;31998;48.798;15.066;2024-02-15T09:47:35;1.83;;;1.73;;
46266;SDS011;31998;48.798;15.066;2024-02-15T09:50:05;1.50;;;1.50;;
46266;SDS011;31998;48.798;15.066;2024-02-15T09:52:31;1.40;;;1.40;;
46266;SDS011;31998;48.798;15.066;2024-02-15T09:54:58;2.27;;;1.60;;
46266;SDS011;31998;48.798;15.066;2024-02-15T09:57:23;2.37;;;2.27;;
46266;SDS011;31998;48.798;15.066;2024-02-15T09:59:49;1.37;;;1.37;;
46266;SDS011;31998;48.798;15.066;2024-02-15T10:02:14;2.10;;;1.60;;
46266;SDS011;31998;48.798;15.066;2024-02-15T10:04:40;1.37;;;1.30;;
46266;SDS011;31998;48.798;15.066;2024-02-15T10:07:06;1.30;;;1.30;;
46266;SDS011;31998;48.798;15.066;2024-02-15T10:09:34;1.20;;;1.10;;
46266;SDS011;31998;48.798;15.066;2024-02-15T10:12:01;0.80;;;0.80;;
46266;SDS011;31998;48.798;15.066;2024-02-15T10:14:27;1.20;;;1.10;;
46266;SDS011;31998;48.798;15.066;2024-02-15T10:16:53;1.67;;;0.80;;
46266;SDS011;31998;48.798;15.066;2024-02-15T10:19:21;2.10;;;2.00;;
46266;SDS011;31998;48.798;15.066;2024-02-15T10:21:53;2.40;;;2.30;;
46266;SDS011;31998;48.798;15.066;2024-02-15T10:24:22;1.93;;;1.60;;
46266;SDS011;31998;48.798;15.066;2024-02-15T10:26:49;1.47;;;1.37;;
46266;SDS011;31998;48.798;15.066;2024-02-15T10:29:14;1.70;;;1.40;;
46266;SDS011;31998;48.798;15.066;2024-02-15T10:31:55;0.80;;;0.80;;
46266;SDS011;31998;48.798;15.066;2024-02-15T10:34:21;0.50;;;0.50;;
46266;SDS011;31998;48.798;15.066;2024-02-15T10:36:46;0.83;;;0.80;;
46266;SDS011;31998;48.798;15.066;2024-02-15T10:39:12;0.83;;;0.70;;
46266;SDS011;31998;48.798;15.066;2024-02-15T10:41:49;1.90;;;0.87;;
46266;SDS011;31998;48.798;15.066;2024-02-15T10:44:16;0.70;;;0.70;;
46266;SDS011;31998;48.798;15.066;2024-02-15T10:46:41;0.53;;;0.53;;
46266;SDS011;31998;48.798;15.066;2024-02-15T10:49:07;0.40;;;0.40;;
46266;SDS011;31998;48.798;15.066;2024-02-15T10:51:32;1.00;;;0.80;;
46266;SDS011;31998;48.798;15.066;2024-02-15T10:54:00;0.80;;;0.60;;
46266;SDS011;31998;48.798;15.066;2024-02-15T10:56:31;1.80;;;0.60;;
46266;SDS011;31998;48.798;15.066;2024-02-15T10:59:18;2.00;;;0.67;;
46266;SDS011;31998;48.798;15.066;2024-02-15T11:01:45;1.07;;;0.60;;
46266;SDS011;31998;48.798;15.066;2024-02-15T11:04:12;0.47;;;0.47;;
46266;SDS011;31998;48.798;15.066;2024-02-15T11:06:39;0.53;;;0.53;;
46266;SDS011;31998;48.798;15.066;2024-02-15T11:09:08;0.77;;;0.70;;
46266;SDS011;31998;48.798;15.066;2024-02-15T11:11:36;0.70;;;0.70;;
46266;SDS011;31998;48.798;15.066;2024-02-15T11:16:46;0.53;;;0.53;;
46266;SDS011;31998;48.798;15.066;2024-02-15T11:19:30;0.40;;;0.40;;
46266;SDS011;31998;48.798;15.066;2024-02-15T11:21:57;1.80;;;0.60;;
46266;SDS011;31998;48.798;15.066;2024-02-15T11:24:29;0.47;;;0.47;;
46266;SDS011;31998;48.798;15.066;2024-02-15T11:27:00;5.93;;;2.30;;
46266;SDS011;31998;48.798;15.066;2024-02-15T11:32:16;0.50;;;0.50;;
46266;SDS011;31998;48.798;15.066;2024-02-15T11:35:03;1.53;;;0.50;;
46266;SDS011;31998;48.798;15.066;2024-02-15T11:40:13;0.40;;;0.40;;
46266;SDS011;31998;48.798;15.066;2024-02-15T11:42:38;0.47;;;0.47;;
46266;SDS011;31998;48.798;15.066;2024-02-15T11:45:05;0.40;;;0.40;;
46266;SDS011;31998;48.798;15.066;2024-02-15T11:47:36;0.40;;;0.40;;
46266;SDS011;31998;48.798;15.066;2024-02-15T11:50:01;0.60;;;0.60;;
46266;SDS011;31998;48.798;15.066;2024-02-15T11:52:28;0.50;;;0.50;;
46266;SDS011;31998;48.798;15.066;2024-02-15T11:54:53;0.40;;;0.40;;
46266;SDS011;31998;48.798;15.066;2024-02-15T11:57:18;0.43;;;0.43;;
46266;SDS011;31998;48.798;15.066;2024-02-15T12:00:01;0.50;;;0.50;;
46266;SDS011;31998;48.798;15.066;2024-02-15T12:02:59;0.87;;;0.53;;
46266;SDS011;31998;48.798;15.066;2024-02-15T12:05:43;0.80;;;0.50;;
46266;SDS011;31998;48.798;15.066;2024-02-15T12:08:26;0.70;;;0.70;;
46266;SDS011;31998;48.798;15.066;2024-02-15T12:11:13;0.53;;;0.53;;
46266;SDS011;31998;48.798;15.066;2024-02-15T12:13:56;1.00;;;1.00;;
46266;SDS011;31998;48.798;15.066;2024-02-15T12:16:40;0.60;;;0.60;;
46266;SDS011;31998;48.798;15.066;2024-02-15T12:19:24;0.60;;;0.60;;
46266;SDS011;31998;48.798;15.066;2024-02-15T12:21:50;0.50;;;0.50;;
46266;SDS011;31998;48.798;15.066;2024-02-15T12:24:15;0.50;;;0.50;;
46266;SDS011;31998;48.798;15.066;2024-02-15T12:26:42;0.60;;;0.60;;
46266;SDS011;31998;48.798;15.066;2024-02-15T12:29:07;1.57;;;0.93;;
46266;SDS011;31998;48.798;15.066;2024-02-15T12:31:35;3.87;;;3.53;;
46266;SDS011;31998;48.798;15.066;2024-02-15T12:34:03;0.63;;;0.63;;
46266;SDS011;31998;48.798;15.066;2024-02-15T12:36:35;0.50;;;0.50;;
46266;SDS011;31998;48.798;15.066;2024-02-15T12:39:03;1.03;;;0.57;;
46266;SDS011;31998;48.798;15.066;2024-02-15T12:41:37;0.50;;;0.50;;
46266;SDS011;31998;48.798;15.066;2024-02-15T12:44:02;0.43;;;0.33;;
46266;SDS011;31998;48.798;15.066;2024-02-15T12:46:28;1.43;;;1.30;;
46266;SDS011;31998;48.798;15.066;2024-02-15T12:51:52;0.87;;;0.40;;
46266;SDS011;31998;48.798;15.066;2024-02-15T12:54:20;0.67;;;0.67;;
46266;SDS011;31998;48.798;15.066;2024-02-15T12:56:49;0.50;;;0.50;;
46266;SDS011;31998;48.798;15.066;2024-02-15T12:59:17;1.63;;;0.73;;
46266;SDS011;31998;48.798;15.066;2024-02-15T13:01:44;0.50;;;0.50;;
46266;SDS011;31998;48.798;15.066;2024-02-15T13:04:20;0.50;;;0.50;;
46266;SDS011;31998;48.798;15.066;2024-02-15T13:06:46;0.40;;;0.40;;
46266;SDS011;31998;48.798;15.066;2024-02-15T13:09:11;0.47;;;0.47;;
46266;SDS011;31998;48.798;15.066;2024-02-15T13:11:37;0.70;;;0.70;;
46266;SDS011;31998;48.798;15.066;2024-02-15T13:14:03;0.70;;;0.70;;
46266;SDS011;31998;48.798;15.066;2024-02-15T13:16:29;2.50;;;0.53;;
46266;SDS011;31998;48.798;15.066;2024-02-15T13:18:56;2.10;;;0.70;;
46266;SDS011;31998;48.798;15.066;2024-02-15T13:21:22;0.40;;;0.40;;
46266;SDS011;31998;48.798;15.066;2024-02-15T13:23:49;1.90;;;0.50;;
46266;SDS011;31998;48.798;15.066;2024-02-15T13:26:15;0.70;;;0.70;;
46266;SDS011;31998;48.798;15.066;2024-02-15T13:28:40;0.77;;;0.77;;
46266;SDS011;31998;48.798;15.066;2024-02-15T13:31:06;2.80;;;0.90;;
46266;SDS011;31998;48.798;15.066;2024-02-15T13:33:32;1.70;;;0.80;;
46266;SDS011;31998;48.798;15.066;2024-02-15T13:35:58;0.80;;;0.80;;
46266;SDS011;31998;48.798;15.066;2024-02-15T13:38:23;0.40;;;0.40;;
46266;SDS011;31998;48.798;15.066;2024-02-15T13:40:48;0.70;;;0.70;;
46266;SDS011;31998;48.798;15.066;2024-02-15T13:43:17;0.50;;;0.50;;
46266;SDS011;31998;48.798;15.066;2024-02-15T13:45:42;0.60;;;0.60;;
46266;SDS011;31998;48.798;15.066;2024-02-15T13:48:09;1.03;;;0.80;;
46266;SDS011;31998;48.798;15.066;2024-02-15T13:50:35;1.73;;;0.50;;
46266;SDS011;31998;48.798;15.066;2024-02-15T13:53:01;1.00;;;0.63;;
46266;SDS011;31998;48.798;15.066;2024-02-15T13:55:27;2.97;;;0.70;;
46266;SDS011;31998;48.798;15.066;2024-02-15T13:57:52;0.60;;;0.60;;
46266;SDS011;31998;48.798;15.066;2024-02-15T14:00:18;0.77;;;0.77;;
46266;SDS011;31998;48.798;15.066;2024-02-15T14:02:50;1.50;;;0.70;;
46266;SDS011;31998;48.798;15.066;2024-02-15T14:05:15;1.00;;;0.73;;
46266;SDS011;31998;48.798;15.066;2024-02-15T14:07:45;0.60;;;0.60;;
46266;SDS011;31998;48.798;15.066;2024-02-15T14:10:10;0.50;;;0.50;;
46266;SDS011;31998;48.798;15.066;2024-02-15T14:12:37;0.60;;;0.60;;
46266;SDS011;31998;48.798;15.066;2024-02-15T14:15:03;2.37;;;0.70;;
46266;SDS011;31998;48.798;15.066;2024-02-15T14:17:30;0.60;;;0.60;;
46266;SDS011;31998;48.798;15.066;2024-02-15T14:19:55;0.80;;;0.80;;
46266;SDS011;31998;48.798;15.066;2024-02-15T14:22:22;0.80;;;0.60;;
46266;SDS011;31998;48.798;15.066;2024-02-15T14:24:48;1.23;;;0.80;;
46266;SDS011;31998;48.798;15.066;2024-02-15T14:27:14;0.77;;;0.73;;
46266;SDS011;31998;48.798;15.066;2024-02-15T14:29:39;2.00;;;1.00;;
46266;SDS011;31998;48.798;15.066;2024-02-15T14:32:25;3.13;;;1.10;;
46266;SDS011;31998;48.798;15.066;2024-02-15T14:35:08;1.03;;;0.70;;
46266;SDS011;31998;48.798;15.066;2024-02-15T14:37:34;0.60;;;0.60;;
46266;SDS011;31998;48.798;15.066;2024-02-15T14:39:59;0.70;;;0.70;;
46266;SDS011;31998;48.798;15.066;2024-02-15T14:42:24;0.53;;;0.53;;
46266;SDS011;31998;48.798;15.066;2024-02-15T14:44:49;0.50;;;0.50;;